Flight Track Log - Related Links

Times and Time Zones

All times are in EST time to prevent confusion due to time zone crossing. See the PDT4207 flight status page for this flight to view local times or setup timezone preferences in your user account.

Time Position Orientation Groundspeed Altitude Reporting Facility
EST Latitude Longitude Course Direction KTS MPH feet Rate Location/Type
Thu 09:39:18 PM 39.9000 -75.2333 North 95 109 700  Level Philadelphia TRACON
Thu 09:40:12 PM 39.9000 -75.2667 270° West 115 132 2,400 1,649 Climbing Philadelphia TRACON
Thu 09:41:00 PM 40.0128 -75.3628 323° Northwest  Level FlightAware
Thu 09:41:29 PM 39.9167 -75.3167 294° West 107 123 4,300  Level Philadelphia TRACON
Thu 09:42:00 PM 40.0607 -75.4107 323° Northwest  Level FlightAware
Thu 09:42:12 PM 39.9333 -75.3333 323° Northwest 111 128 5,500  Level Philadelphia TRACON
Thu 09:43:00 PM 40.1094 -75.4521 303° West  Level FlightAware
Thu 09:43:29 PM 39.9500 -75.3833 294° West 89 102 7,700  Level Philadelphia TRACON
Thu 09:44:00 PM 40.1551 -75.5000 North  Level FlightAware
Thu 09:44:18 PM 39.9667 -75.3833 360° North 138 159 8,400  Level Philadelphia TRACON
Thu 09:45:17 PM 40.0167 -75.4000 346° North 143 165 9,600 1,234 Climbing Philadelphia TRACON
Thu 09:46:05 PM 40.0322 -75.4231 311° West 121 139 10,600 1,333 Climbing New Center
Thu 09:47:05 PM 40.0539 -75.4542 312° West 121 139 12,000 700 Climbing New Center
Thu 09:48:05 PM 40.0944 -75.4842 330° Northwest 178 205 12,000  Level New Center
Thu 09:49:05 PM 40.1328 -75.5111 332° Northwest 178 205 12,000  Level New Center
Thu 09:50:05 PM 40.1814 -75.5472 330° Northwest 187 215 12,000  Level New Center
Thu 09:51:05 PM 40.2200 -75.5714 334° Northwest 204 235 12,000  Level New Center
Thu 09:52:05 PM 40.2556 -75.6203 314° West 175 201 12,000  Level New Center
Thu 09:53:05 PM 40.2869 -75.6661 312° West 169 194 12,000  Level New Center
Thu 09:54:05 PM 40.3358 -75.6967 335° Northwest 181 208 12,000  Level New Center
Thu 09:55:05 PM 40.3808 -75.7189 339° North 187 215 12,000  Level New Center
Thu 09:56:05 PM 40.4256 -75.7467 335° Northwest 187 215 12,000  Level New Center
Thu 09:57:05 PM 40.4825 -75.7753 339° North 194 223 12,000  Level New Center
Thu 09:58:05 PM 40.5294 -75.8033 336° Northwest 194 223 12,000  Level New Center
Thu 09:59:05 PM 40.5758 -75.8342 333° Northwest 189 217 12,000  Level New Center
Thu 10:00:06 PM 40.6253 -75.8486 347° North 194 223 12,000  Level New Center
Thu 10:01:05 PM 40.6803 -75.8800 337° Northwest 194 223 12,000  Level New Center
Thu 10:02:05 PM 40.7269 -75.9083 335° Northwest 188 216 12,000  Level New Center
Thu 10:03:05 PM 40.7650 -75.9411 327° Northwest 188 216 12,000  Level New Center
Thu 10:04:05 PM 40.8178 -75.9756 334° Northwest 183 211 12,000  Level New Center
Thu 10:05:05 PM 40.8606 -75.9978 339° North 178 205 12,000  Level New Center
Thu 10:06:05 PM 40.9072 -76.0289 333° Northwest 178 205 12,000  Level New Center
Thu 10:07:05 PM 40.9619 -76.0578 338° Northwest 183 211 12,000  Level New Center
Thu 10:08:05 PM 41.0072 -76.0753 344° North 188 216 12,000  Level New Center
Thu 10:09:05 PM 41.0600 -76.1042 338° Northwest 183 211 12,000  Level New Center
Thu 10:10:05 PM 41.1092 -76.1244 343° North 183 211 12,000  Level New Center
Thu 10:11:05 PM 41.1725 -76.1047 13° North 204 235 12,000  Level New Center
Thu 10:12:05 PM 41.2269 -76.1006 North 217 250 12,000  Level New Center
Thu 10:13:05 PM 41.2850 -76.1025 359° North 217 250 12,000  Level New Center
Thu 10:14:06 PM 41.3522 -76.0939 North 217 250 12,000  Level New Center
Thu 10:15:05 PM 41.4150 -76.0822 North 217 250 12,000 -50 Level New Center
Thu 10:16:06 PM 41.4758 -76.0761 North 222 255 11,900 -400 Descending New Center
Thu 10:17:05 PM 41.5344 -76.0697 North 222 255 11,200 -655 Descending New Center
Thu 10:18:05 PM 41.6014 -76.0611 North 228 262 10,600 -700 Descending New Center
Thu 10:19:05 PM 41.6725 -76.0556 North 238 274 9,800 -750 Descending New Center
Thu 10:20:05 PM 41.7375 -76.0469 North 238 274 9,100 -750 Descending New Center
Thu 10:21:05 PM 41.8003 -76.0378 North 238 274 8,300 -1,150 Descending New Center
Thu 10:22:05 PM 41.8506 -76.0336 North 215 247 6,800 -1,450 Descending New Center
Thu 10:23:05 PM 41.9111 -76.0244 North 202 232 5,400 -1,350 Descending New Center
Thu 10:24:05 PM 41.9683 -76.0067 13° North 202 232 4,100 -700 Descending New Center
Thu 10:25:05 PM 42.0192 -75.9828 19° North 197 227 4,000 -100 Descending New Center
Thu 10:26:05 PM 42.0700 -75.9644 15° North 197 227 3,900 -250 Descending New Center
Thu 10:27:05 PM 42.1164 -75.9486 14° North 190 219 3,500 -550 Descending New Center
Thu 10:28:05 PM 42.1544 -75.9403 North 160 184 2,800 -700 Descending New Center
Thu 10:29:05 PM 42.1806 -75.9592 332° Northwest 122 140 2,100 -350 Descending New Center
Thu 10:30:05 PM 42.2183 -75.9536 North 116 133 2,100  Level New Center

Login

Don't have an account? Register now (free) for customized features, flight alerts, and more!